Time;durP1;ratioP1;P1;durP2;ratioP2;P2;SDS_P1;SDS_P2;PMS_P1;PMS_P2;Temp;Humidity;BMP_temperature;BMP_pressure;BME280_temperature;BME280_humidity;BME280_pressure;Samples;Min_cycle;Max_cycle;Signal;HPM_P1;HPM_P2
2023/08/17 00:00:03;;;;;;;3.70;2.40;;;19.00;99.90;;;;;;5093997;28;20442;-61
2023/08/17 00:02:30;;;;;;;8.57;2.60;;;19.00;99.90;;;;;;5093720;28;20436;-62
2023/08/17 00:04:55;;;;;;;4.77;2.83;;;19.00;99.90;;;;;;5093660;28;20445;-61
2023/08/17 00:07:22;;;;;;;2.70;2.20;;;19.00;99.90;;;;;;5094033;28;21052;-61
2023/08/17 00:09:50;;;;;;;5.97;2.67;;;19.00;99.90;;;;;;5093790;28;20217;-61
2023/08/17 00:12:17;;;;;;;4.13;2.63;;;19.00;99.90;;;;;;5093241;28;20960;-61
2023/08/17 00:14:44;;;;;;;6.40;2.67;;;19.00;99.90;;;;;;5093519;28;20443;-62
2023/08/17 00:17:10;;;;;;;3.90;2.53;;;18.90;99.90;;;;;;5093399;28;20484;-61
2023/08/17 00:19:37;;;;;;;6.23;2.60;;;18.90;99.90;;;;;;5093308;28;20448;-62
2023/08/17 00:22:04;;;;;;;4.17;2.90;;;18.90;99.90;;;;;;5093449;28;20448;-62
2023/08/17 00:24:31;;;;;;;6.87;2.67;;;18.90;99.90;;;;;;5093165;28;20445;-62
2023/08/17 00:26:59;;;;;;;4.60;2.40;;;18.90;99.90;;;;;;5093828;28;20443;-62
2023/08/17 00:29:26;;;;;;;3.73;2.40;;;18.80;99.90;;;;;;5097354;28;20451;-63
2023/08/17 00:31:53;;;;;;;4.73;2.90;;;18.80;99.90;;;;;;5097269;28;20440;-61
2023/08/17 00:34:19;;;;;;;2.63;2.30;;;18.80;99.90;;;;;;5097367;28;20448;-62
2023/08/17 00:36:46;;;;;;;4.70;3.10;;;18.80;99.90;;;;;;5096838;28;20475;-61
2023/08/17 00:39:14;;;;;;;3.67;2.73;;;18.80;99.90;;;;;;5097242;28;20455;-62
2023/08/17 00:41:41;;;;;;;3.90;2.70;;;18.70;99.90;;;;;;5099395;28;20445;-62
2023/08/17 00:44:09;;;;;;;3.73;2.87;;;18.70;99.90;;;;;;5099109;28;20519;-62
2023/08/17 00:46:36;;;;;;;8.10;2.83;;;18.70;99.90;;;;;;5098883;28;20434;-61
2023/08/17 00:49:03;;;;;;;4.70;3.03;;;18.60;99.90;;;;;;5098703;28;20470;-62
2023/08/17 00:51:31;;;;;;;5.83;3.20;;;18.60;99.90;;;;;;5098779;28;20446;-62
2023/08/17 00:54:00;;;;;;;4.20;3.23;;;18.50;99.90;;;;;;5097958;28;20903;-60
2023/08/17 00:56:27;;;;;;;5.00;3.13;;;18.50;99.90;;;;;;5096759;28;20446;-62
2023/08/17 00:58:55;;;;;;;5.10;2.83;;;18.50;99.90;;;;;;5096671;28;20466;-63
2023/08/17 01:01:23;;;;;;;6.70;2.80;;;18.40;99.90;;;;;;5096791;28;20442;-61
2023/08/17 01:03:50;;;;;;;4.67;3.13;;;18.40;99.90;;;;;;5096267;28;20466;-61
2023/08/17 01:06:17;;;;;;;3.70;3.27;;;18.30;99.90;;;;;;5096629;28;20440;-61
2023/08/17 01:08:45;;;;;;;5.13;3.40;;;18.30;99.90;;;;;;5096237;28;21012;-61
2023/08/17 01:11:18;;;;;;;6.63;3.40;;;18.30;99.90;;;;;;5096571;28;20447;-61
2023/08/17 01:13:51;;;;;;;3.97;3.53;;;18.30;99.90;;;;;;5096491;28;20912;-62
2023/08/17 01:16:27;;;;;;;5.83;3.50;;;18.20;99.90;;;;;;5096959;28;20430;-61
2023/08/17 01:18:55;;;;;;;3.67;3.17;;;18.20;99.90;;;;;;5096374;28;20462;-61
2023/08/17 01:21:25;;;;;;;3.80;3.40;;;18.20;99.90;;;;;;5096271;28;20444;-61
2023/08/17 01:23:53;;;;;;;6.00;3.70;;;18.20;99.90;;;;;;5096641;28;20438;-61
2023/08/17 01:26:19;;;;;;;4.30;3.53;;;18.20;99.90;;;;;;5096200;28;20430;-61
2023/08/17 01:28:48;;;;;;;5.17;3.40;;;18.20;99.90;;;;;;5095804;28;20466;-60
2023/08/17 01:31:20;;;;;;;5.77;3.97;;;18.20;99.90;;;;;;5096067;28;20444;-61
2023/08/17 01:33:52;;;;;;;6.93;3.80;;;18.10;99.90;;;;;;5096142;28;20484;-60
2023/08/17 01:36:23;;;;;;;6.13;3.90;;;18.10;99.90;;;;;;5096547;28;20522;-61
2023/08/17 01:38:55;;;;;;;4.43;4.00;;;18.00;99.90;;;;;;5094838;28;20977;-61
2023/08/17 01:41:24;;;;;;;5.07;3.53;;;18.00;99.90;;;;;;5095546;28;20799;-60
2023/08/17 01:43:51;;;;;;;5.90;4.17;;;18.00;99.90;;;;;;5095806;28;20442;-60
2023/08/17 01:46:19;;;;;;;3.77;3.47;;;17.90;99.90;;;;;;5095526;28;20445;-60
2023/08/17 01:48:46;;;;;;;6.77;3.53;;;17.90;99.90;;;;;;5095272;28;20504;-61
2023/08/17 01:51:20;;;;;;;6.93;4.20;;;17.90;99.90;;;;;;5095759;28;20526;-60
2023/08/17 01:53:46;;;;;;;7.43;4.03;;;17.80;99.90;;;;;;5095586;28;20897;-61
2023/08/17 01:56:15;;;;;;;4.70;4.30;;;17.70;99.90;;;;;;5096136;28;20495;-61
2023/08/17 01:58:42;;;;;;;10.63;5.60;;;17.70;99.90;;;;;;5095620;28;20823;-59
2023/08/17 02:01:08;;;;;;;5.70;4.80;;;17.70;99.90;;;;;;5095612;28;20439;-61
2023/08/17 02:03:35;;;;;;;7.90;4.40;;;17.60;99.90;;;;;;5095212;28;20446;-61
2023/08/17 02:06:02;;;;;;;7.63;4.50;;;17.50;99.90;;;;;;5095484;28;20438;-61
2023/08/17 02:08:31;;;;;;;7.23;5.00;;;17.40;99.90;;;;;;5095713;28;20462;-60
2023/08/17 02:10:57;;;;;;;10.13;5.40;;;17.30;99.90;;;;;;5095591;28;20442;-60
2023/08/17 02:13:27;;;;;;;14.33;5.50;;;17.20;99.90;;;;;;5095413;28;20435;-60
2023/08/17 02:15:54;;;;;;;6.60;5.10;;;17.10;99.90;;;;;;5096344;28;20468;-60
2023/08/17 02:18:20;;;;;;;9.40;5.20;;;17.00;99.90;;;;;;5095254;28;20482;-59
2023/08/17 02:20:47;;;;;;;9.60;5.40;;;17.00;99.90;;;;;;5095413;28;20442;-59
2023/08/17 02:23:14;;;;;;;9.53;4.97;;;16.90;99.90;;;;;;5095334;28;20467;-60
2023/08/17 02:25:41;;;;;;;9.37;5.80;;;16.90;99.90;;;;;;5095120;28;20823;-60
2023/08/17 02:28:07;;;;;;;7.80;5.80;;;16.90;99.90;;;;;;5095317;28;20459;-60
2023/08/17 02:30:35;;;;;;;9.90;6.50;;;16.90;99.90;;;;;;5095229;28;20445;-60
2023/08/17 02:33:02;;;;;;;8.70;6.10;;;16.90;99.90;;;;;;5095054;28;20459;-60
2023/08/17 02:35:29;;;;;;;7.73;6.40;;;16.90;99.90;;;;;;5095074;28;20444;-60
2023/08/17 02:37:56;;;;;;;7.50;5.70;;;16.80;99.90;;;;;;5094936;28;20506;-59
2023/08/17 02:40:22;;;;;;;7.47;5.90;;;16.80;99.90;;;;;;5094690;28;20950;-60
2023/08/17 02:42:49;;;;;;;10.40;6.27;;;16.90;99.90;;;;;;5094860;28;20466;-60
2023/08/17 02:45:16;;;;;;;11.67;6.70;;;16.80;99.90;;;;;;5095062;28;20449;-59
2023/08/17 02:47:44;;;;;;;11.23;6.37;;;16.80;99.90;;;;;;5094700;28;20467;-59
2023/08/17 02:50:11;;;;;;;10.97;6.57;;;16.80;99.90;;;;;;5094078;28;20448;-60
2023/08/17 02:52:38;;;;;;;12.43;7.83;;;16.80;99.90;;;;;;5094262;28;20439;-59
2023/08/17 02:55:06;;;;;;;10.93;7.03;;;16.80;99.90;;;;;;5094402;28;20440;-59
2023/08/17 02:57:32;;;;;;;9.97;7.00;;;16.80;99.90;;;;;;5094555;28;20480;-60
2023/08/17 02:59:59;;;;;;;9.57;7.30;;;16.80;99.90;;;;;;5094640;28;20447;-59
2023/08/17 03:02:27;;;;;;;9.90;7.93;;;16.80;99.90;;;;;;5094290;28;20764;-59
2023/08/17 03:04:55;;;;;;;9.47;7.83;;;16.80;99.90;;;;;;5094193;28;20824;-59
2023/08/17 03:07:22;;;;;;;14.30;9.70;;;16.80;99.90;;;;;;5094162;28;20801;-60
2023/08/17 03:09:48;;;;;;;9.50;7.77;;;16.80;99.90;;;;;;5094234;28;20441;-60
2023/08/17 03:12:15;;;;;;;9.93;8.10;;;16.80;99.90;;;;;;5094625;28;20921;-60
2023/08/17 03:14:42;;;;;;;11.27;8.80;;;16.80;99.90;;;;;;5093735;28;20532;-58
2023/08/17 03:17:08;;;;;;;11.93;8.73;;;16.80;99.90;;;;;;5093639;28;20455;-60
2023/08/17 03:19:35;;;;;;;8.40;7.60;;;16.80;99.90;;;;;;5094137;28;20816;-60
2023/08/17 03:22:03;;;;;;;8.73;7.60;;;16.80;99.90;;;;;;5093945;28;20958;-60
2023/08/17 03:24:30;;;;;;;10.40;7.13;;;16.80;99.90;;;;;;5094425;28;20470;-59
2023/08/17 03:26:57;;;;;;;7.47;6.77;;;16.80;99.90;;;;;;5094376;28;20525;-61
2023/08/17 03:29:24;;;;;;;7.40;6.70;;;16.80;99.90;;;;;;5094168;28;20438;-59
2023/08/17 03:31:50;;;;;;;8.90;6.80;;;16.80;99.90;;;;;;5094259;28;20530;-61
2023/08/17 03:34:17;;;;;;;8.60;6.73;;;16.80;99.90;;;;;;5094245;28;20469;-59
2023/08/17 03:36:44;;;;;;;9.93;7.00;;;16.90;99.90;;;;;;5093541;28;20439;-60
2023/08/17 03:39:12;;;;;;;8.80;6.50;;;16.90;99.90;;;;;;5093444;28;20497;-58
2023/08/17 03:41:39;;;;;;;7.87;7.07;;;16.90;99.90;;;;;;5093590;28;20440;-59
2023/08/17 03:44:06;;;;;;;10.53;7.57;;;16.90;99.90;;;;;;5093588;28;20533;-60
2023/08/17 03:46:33;;;;;;;8.47;7.57;;;16.90;99.90;;;;;;5093464;28;20448;-59
2023/08/17 03:49:00;;;;;;;9.53;7.83;;;16.90;99.90;;;;;;5093106;28;20515;-61
2023/08/17 03:51:27;;;;;;;9.67;8.77;;;16.90;99.90;;;;;;5093290;28;20440;-60
2023/08/17 03:53:54;;;;;;;8.47;7.70;;;16.90;99.90;;;;;;5093502;28;20542;-61
2023/08/17 03:56:22;;;;;;;11.07;7.83;;;16.90;99.90;;;;;;5093009;28;20447;-59
2023/08/17 03:58:48;;;;;;;9.13;8.20;;;16.90;99.90;;;;;;5092821;28;20983;-60
2023/08/17 04:01:15;;;;;;;9.00;7.30;;;16.90;99.90;;;;;;5092833;28;20958;-60
2023/08/17 04:03:42;;;;;;;7.87;7.17;;;16.90;99.90;;;;;;5092376;28;20452;-60
2023/08/17 04:06:10;;;;;;;8.43;7.67;;;17.00;99.90;;;;;;5093098;28;20434;-59
2023/08/17 04:12:06;;;;;;;7.67;6.87;;;17.00;99.90;;;;;;5090726;28;20553;-58
2023/08/17 04:14:33;;;;;;;8.00;7.20;;;17.00;99.90;;;;;;5090631;28;20446;-58
2023/08/17 04:17:00;;;;;;;8.77;6.93;;;17.10;99.90;;;;;;5090124;28;20813;-59
2023/08/17 04:19:27;;;;;;;8.00;7.10;;;17.10;99.90;;;;;;5090635;28;20537;-59
2023/08/17 04:21:54;;;;;;;8.47;7.00;;;17.10;99.90;;;;;;5090472;28;20451;-60
2023/08/17 04:24:20;;;;;;;7.50;6.70;;;17.10;99.90;;;;;;5090392;28;20446;-60
2023/08/17 04:26:47;;;;;;;7.57;6.97;;;17.10;99.90;;;;;;5090408;28;20816;-59
2023/08/17 04:29:15;;;;;;;7.23;6.73;;;17.20;99.90;;;;;;5090396;28;20456;-59
2023/08/17 04:31:42;;;;;;;7.90;7.17;;;17.20;99.90;;;;;;5090230;28;20508;-61
2023/08/17 04:34:09;;;;;;;8.30;7.60;;;17.20;99.90;;;;;;5090305;28;20467;-60
2023/08/17 04:36:35;;;;;;;8.73;7.00;;;17.20;99.90;;;;;;5090279;28;20445;-59
2023/08/17 04:39:04;;;;;;;7.67;6.83;;;17.20;99.90;;;;;;5089983;28;20462;-60
2023/08/17 04:41:30;;;;;;;8.30;7.50;;;17.20;99.90;;;;;;5089727;28;20492;-59
2023/08/17 04:43:57;;;;;;;8.50;7.80;;;17.30;99.90;;;;;;5089646;28;20445;-59
2023/08/17 04:46:25;;;;;;;7.47;6.87;;;17.30;99.90;;;;;;5089977;28;20442;-60
2023/08/17 04:48:52;;;;;;;8.10;7.37;;;17.30;99.90;;;;;;5089860;28;20450;-58
2023/08/17 04:51:19;;;;;;;7.30;6.60;;;17.30;99.90;;;;;;5089988;28;20523;-60
2023/08/17 04:53:46;;;;;;;8.07;7.20;;;17.30;99.90;;;;;;5089557;28;20450;-60
2023/08/17 04:56:13;;;;;;;9.60;8.00;;;17.30;99.90;;;;;;5089922;22;21018;-63
2023/08/17 04:58:39;;;;;;;8.87;7.30;;;17.30;99.90;;;;;;5050011;28;20892;-64
2023/08/17 05:01:06;;;;;;;8.40;7.60;;;17.40;99.90;;;;;;5049744;28;20436;-64
2023/08/17 05:03:34;;;;;;;9.80;6.93;;;17.40;99.90;;;;;;5049835;28;20444;-64
2023/08/17 05:06:01;;;;;;;11.03;8.10;;;17.40;99.90;;;;;;5050168;28;20474;-65
2023/08/17 05:08:28;;;;;;;9.13;7.07;;;17.40;99.90;;;;;;5049502;28;20444;-63
2023/08/17 05:10:54;;;;;;;8.07;7.30;;;17.40;99.90;;;;;;5048634;28;20487;-64
2023/08/17 05:13:21;;;;;;;8.27;7.47;;;17.40;99.90;;;;;;5049153;28;20448;-65
2023/08/17 05:15:48;;;;;;;8.87;7.23;;;17.40;99.90;;;;;;5049236;28;20466;-64
2023/08/17 05:18:15;;;;;;;13.20;8.43;;;17.40;99.90;;;;;;5049196;28;20926;-64
2023/08/17 05:20:43;;;;;;;7.97;7.23;;;17.40;99.90;;;;;;5052032;28;20958;-64
2023/08/17 05:23:10;;;;;;;10.70;8.13;;;17.50;99.90;;;;;;5038084;28;20524;-65
2023/08/17 05:25:36;;;;;;;8.33;7.53;;;17.50;99.90;;;;;;5035506;28;20837;-64
2023/08/17 05:28:03;;;;;;;10.40;7.33;;;17.50;99.90;;;;;;5035362;28;20447;-65
2023/08/17 05:30:30;;;;;;;7.77;6.97;;;17.50;99.90;;;;;;5035570;28;20485;-67
2023/08/17 05:32:57;;;;;;;9.37;7.17;;;17.60;99.90;;;;;;5035580;28;20441;-65
2023/08/17 05:35:24;;;;;;;9.07;7.67;;;17.60;99.90;;;;;;5036011;28;20467;-66
2023/08/17 05:37:52;;;;;;;7.50;6.87;;;17.60;99.90;;;;;;5035299;28;20496;-64
2023/08/17 05:40:19;;;;;;;7.80;7.10;;;17.60;99.90;;;;;;5035344;28;20452;-64
2023/08/17 05:42:45;;;;;;;7.77;6.97;;;17.60;99.90;;;;;;5035356;28;20442;-65
2023/08/17 05:45:12;;;;;;;8.60;7.50;;;17.60;99.90;;;;;;5035203;28;20500;-64
2023/08/17 05:47:39;;;;;;;8.90;6.73;;;17.60;99.90;;;;;;5035172;28;20438;-64
2023/08/17 05:50:07;;;;;;;7.83;7.20;;;17.60;99.90;;;;;;5035686;28;20459;-65
2023/08/17 05:52:33;;;;;;;9.47;7.27;;;17.70;99.90;;;;;;5035521;28;20422;-64
2023/08/17 05:55:02;;;;;;;8.17;7.37;;;17.60;99.90;;;;;;5035567;28;20451;-62
2023/08/17 05:57:28;;;;;;;7.70;6.90;;;17.70;99.90;;;;;;5035161;28;20919;-63
2023/08/17 05:59:55;;;;;;;9.00;8.10;;;17.70;99.90;;;;;;5035304;28;20448;-63
2023/08/17 06:02:22;;;;;;;8.10;7.40;;;17.70;99.90;;;;;;5035361;28;20437;-63
2023/08/17 06:04:49;;;;;;;7.97;6.60;;;17.70;99.90;;;;;;5035179;28;20446;-65
2023/08/17 06:07:15;;;;;;;8.10;7.30;;;17.70;99.90;;;;;;5035951;28;20979;-63
2023/08/17 06:09:42;;;;;;;10.37;7.00;;;17.70;99.90;;;;;;5035346;28;20445;-64
2023/08/17 06:12:11;;;;;;;7.13;6.53;;;17.70;99.90;;;;;;5035319;28;20824;-63
2023/08/17 06:14:37;;;;;;;6.73;6.23;;;17.70;99.90;;;;;;5035511;28;20441;-63
2023/08/17 06:17:04;;;;;;;7.40;6.80;;;17.70;99.90;;;;;;5035107;28;20471;-64
2023/08/17 06:19:31;;;;;;;7.50;6.87;;;17.70;99.90;;;;;;5034662;28;20433;-63
2023/08/17 06:21:58;;;;;;;7.83;6.77;;;17.70;99.90;;;;;;5034639;28;20442;-63
2023/08/17 06:24:24;;;;;;;8.13;7.43;;;17.70;99.90;;;;;;5034781;28;20446;-64
2023/08/17 06:26:51;;;;;;;7.97;7.33;;;17.70;99.90;;;;;;5034671;28;20464;-63
2023/08/17 06:29:19;;;;;;;7.50;6.83;;;17.80;99.90;;;;;;5035087;28;20524;-65
2023/08/17 06:31:46;;;;;;;7.90;7.10;;;17.70;99.90;;;;;;5035319;28;20474;-63
2023/08/17 06:34:13;;;;;;;7.70;7.00;;;17.80;99.90;;;;;;5036543;28;20444;-64
2023/08/17 06:36:40;;;;;;;8.00;7.20;;;17.80;99.90;;;;;;5034378;28;20891;-64
2023/08/17 06:39:07;;;;;;;7.37;6.77;;;17.80;99.90;;;;;;5034594;28;20450;-64
2023/08/17 06:41:35;;;;;;;7.30;6.77;;;17.80;99.90;;;;;;5034749;28;20442;-64
2023/08/17 06:44:01;;;;;;;7.20;6.60;;;17.80;99.90;;;;;;5034441;28;20446;-64
2023/08/17 06:46:30;;;;;;;8.70;7.10;;;17.80;99.90;;;;;;5033758;28;20478;-65
2023/08/17 06:48:56;;;;;;;7.90;7.20;;;17.90;99.90;;;;;;5034431;28;20786;-64
2023/08/17 06:51:23;;;;;;;8.00;7.20;;;17.80;99.90;;;;;;5034416;28;20473;-64
2023/08/17 06:53:50;;;;;;;8.07;7.27;;;17.80;99.90;;;;;;5034466;28;20446;-63
2023/08/17 06:56:17;;;;;;;7.60;6.90;;;17.80;99.90;;;;;;5034169;28;20479;-63
2023/08/17 06:58:43;;;;;;;6.80;6.30;;;17.80;99.90;;;;;;5034339;28;20796;-63
2023/08/17 07:01:10;;;;;;;7.90;7.10;;;17.90;99.90;;;;;;5034780;28;20448;-64
2023/08/17 07:03:38;;;;;;;12.30;7.50;;;17.90;99.90;;;;;;5033936;28;20449;-63
2023/08/17 07:06:05;;;;;;;8.67;7.87;;;17.90;99.90;;;;;;5033757;28;21040;-63
2023/08/17 07:08:32;;;;;;;8.13;7.17;;;17.90;99.90;;;;;;5033834;28;20445;-65
2023/08/17 07:10:59;;;;;;;7.50;7.00;;;17.90;99.90;;;;;;5034021;28;20477;-65
2023/08/17 07:13:26;;;;;;;8.20;7.40;;;17.90;99.90;;;;;;5033781;28;20939;-64
2023/08/17 07:15:53;;;;;;;10.20;7.60;;;17.90;99.90;;;;;;5034090;28;20482;-64
2023/08/17 07:18:19;;;;;;;9.17;7.63;;;18.00;99.90;;;;;;5033795;28;20510;-64
2023/08/17 07:20:49;;;;;;;7.50;6.90;;;18.00;99.90;;;;;;5034118;28;20444;-63
2023/08/17 07:23:15;;;;;;;7.73;7.10;;;18.00;99.90;;;;;;5033656;28;20504;-64
2023/08/17 07:25:42;;;;;;;7.80;7.00;;;18.00;99.90;;;;;;5033893;28;20581;-64
2023/08/17 07:28:09;;;;;;;7.20;6.53;;;18.10;99.90;;;;;;5033757;28;20441;-64
2023/08/17 07:30:36;;;;;;;7.00;6.40;;;18.10;99.90;;;;;;5033182;28;20449;-64
2023/08/17 07:33:02;;;;;;;7.00;6.43;;;18.10;99.90;;;;;;5033345;28;20483;-64
2023/08/17 07:35:29;;;;;;;6.87;6.33;;;18.10;99.90;;;;;;5033383;28;20471;-64
2023/08/17 07:37:57;;;;;;;7.03;6.43;;;18.10;99.90;;;;;;5033349;28;20448;-64
2023/08/17 07:40:24;;;;;;;7.20;6.50;;;18.20;99.90;;;;;;5032955;28;20444;-65
2023/08/17 07:42:51;;;;;;;7.13;6.53;;;18.20;99.90;;;;;;5033185;28;20442;-64
2023/08/17 07:45:18;;;;;;;8.40;6.50;;;18.20;99.90;;;;;;5033322;28;20463;-63
2023/08/17 07:47:44;;;;;;;6.30;5.90;;;18.20;99.90;;;;;;5033276;28;20475;-65
2023/08/17 07:50:11;;;;;;;6.83;6.27;;;18.20;99.90;;;;;;5033123;28;20440;-64
2023/08/17 07:52:38;;;;;;;6.73;6.13;;;18.20;99.90;;;;;;5033443;28;20491;-64
2023/08/17 07:55:06;;;;;;;6.73;6.23;;;18.30;99.90;;;;;;5032793;28;20855;-65
2023/08/17 07:57:33;;;;;;;7.63;6.53;;;18.30;99.90;;;;;;5032588;28;20428;-64
2023/08/17 08:00:00;;;;;;;8.20;6.30;;;18.40;99.90;;;;;;5033128;28;20527;-64
2023/08/17 08:02:27;;;;;;;6.07;5.57;;;18.40;99.90;;;;;;5033361;28;20437;-63
2023/08/17 08:04:53;;;;;;;6.00;5.43;;;18.40;99.90;;;;;;5033143;28;20474;-61
2023/08/17 08:07:20;;;;;;;5.40;5.00;;;18.50;99.90;;;;;;5033109;28;20977;-64
2023/08/17 08:09:47;;;;;;;6.37;5.77;;;18.50;99.90;;;;;;5033045;28;20447;-64
2023/08/17 08:12:15;;;;;;;6.03;5.43;;;18.50;99.90;;;;;;5033065;28;20849;-65
2023/08/17 08:14:42;;;;;;;5.53;5.07;;;18.50;99.90;;;;;;5033081;28;20450;-66
2023/08/17 08:17:08;;;;;;;7.23;5.97;;;18.50;99.90;;;;;;5033139;28;20547;-63
2023/08/17 08:19:36;;;;;;;6.13;5.47;;;18.60;99.90;;;;;;5033260;28;20937;-63
2023/08/17 08:22:03;;;;;;;8.40;5.30;;;18.60;99.90;;;;;;5033754;28;20786;-65
2023/08/17 08:24:33;;;;;;;5.47;5.07;;;18.60;99.90;;;;;;5033869;28;20909;-65
2023/08/17 08:27:00;;;;;;;5.80;5.30;;;18.60;99.90;;;;;;5033225;28;20467;-64
2023/08/17 08:29:28;;;;;;;6.10;5.53;;;18.60;99.90;;;;;;5033372;28;20444;-65
2023/08/17 08:31:57;;;;;;;5.30;4.80;;;18.50;99.90;;;;;;5033630;28;20479;-64
2023/08/17 08:34:23;;;;;;;5.80;5.30;;;18.50;99.90;;;;;;5032905;28;20940;-64
2023/08/17 08:36:50;;;;;;;7.17;5.60;;;18.50;99.90;;;;;;5032527;28;20835;-65
2023/08/17 08:39:17;;;;;;;6.40;5.80;;;18.50;99.90;;;;;;5033042;28;20443;-66
2023/08/17 08:41:44;;;;;;;6.73;6.07;;;18.50;99.90;;;;;;5033400;28;20479;-65
2023/08/17 08:44:11;;;;;;;6.13;5.70;;;18.50;99.90;;;;;;5033221;28;20443;-65
2023/08/17 08:46:41;;;;;;;7.00;6.30;;;18.40;99.90;;;;;;5033603;28;20482;-65
2023/08/17 08:49:12;;;;;;;6.33;5.80;;;18.50;99.90;;;;;;5033420;28;20418;-64
2023/08/17 08:51:42;;;;;;;6.43;5.93;;;18.50;99.90;;;;;;5033036;28;20464;-65
2023/08/17 08:54:14;;;;;;;7.30;6.70;;;18.50;99.90;;;;;;5033268;28;20457;-65
2023/08/17 08:56:44;;;;;;;6.57;5.97;;;18.50;99.90;;;;;;5032654;28;20482;-63
2023/08/17 08:59:12;;;;;;;5.20;4.80;;;18.60;99.90;;;;;;5036597;28;20451;-63
2023/08/17 09:01:41;;;;;;;5.40;4.90;;;18.70;99.90;;;;;;5036873;28;20448;-66
2023/08/17 09:04:08;;;;;;;4.10;3.80;;;18.80;99.90;;;;;;5036525;28;20538;-66
2023/08/17 09:06:35;;;;;;;4.17;3.87;;;18.90;99.90;;;;;;5036695;28;20475;-65
2023/08/17 09:09:03;;;;;;;4.83;4.30;;;18.90;99.90;;;;;;5036273;28;20447;-65
2023/08/17 09:11:31;;;;;;;4.73;4.17;;;18.90;99.90;;;;;;5036095;28;20481;-64
2023/08/17 09:13:57;;;;;;;3.43;3.20;;;18.90;99.90;;;;;;5035869;28;20446;-63
2023/08/17 09:16:24;;;;;;;3.87;3.57;;;18.90;99.90;;;;;;5035897;28;20986;-65
2023/08/17 09:18:54;;;;;;;4.20;3.90;;;18.90;99.90;;;;;;5036082;28;20548;-65
2023/08/17 09:21:24;;;;;;;4.63;4.33;;;18.90;99.90;;;;;;5036359;28;20446;-65
2023/08/17 09:23:54;;;;;;;4.40;4.10;;;18.90;99.90;;;;;;5036380;28;20451;-65
2023/08/17 09:26:23;;;;;;;4.60;4.30;;;18.90;99.90;;;;;;5036230;28;20552;-65
2023/08/17 09:28:50;;;;;;;4.47;4.17;;;18.80;99.90;;;;;;5036031;28;20506;-65
2023/08/17 09:31:17;;;;;;;5.70;5.13;;;18.70;99.90;;;;;;5036010;28;20439;-65
2023/08/17 09:33:44;;;;;;;5.17;4.77;;;18.60;99.90;;;;;;5035997;28;20447;-66
2023/08/17 09:36:13;;;;;;;3.80;3.50;;;18.60;99.90;;;;;;5035854;28;20464;-65
2023/08/17 09:38:40;;;;;;;4.50;4.00;;;18.60;99.90;;;;;;5035697;28;20466;-66
2023/08/17 09:41:06;;;;;;;4.40;4.00;;;18.60;99.90;;;;;;5035675;28;20447;-66
2023/08/17 09:43:34;;;;;;;5.87;5.37;;;18.50;99.90;;;;;;5036290;28;20441;-64
2023/08/17 09:46:03;;;;;;;4.47;4.07;;;18.50;99.90;;;;;;5036202;28;20476;-66
2023/08/17 09:48:30;;;;;;;4.00;3.70;;;18.50;99.90;;;;;;5035605;28;20827;-66
2023/08/17 09:50:57;;;;;;;3.93;3.63;;;18.50;99.90;;;;;;5035203;28;20905;-66
2023/08/17 09:53:26;;;;;;;4.70;4.30;;;18.50;99.90;;;;;;5037381;28;20490;-65
2023/08/17 09:55:55;;;;;;;5.70;5.30;;;18.50;99.90;;;;;;5037229;28;20476;-65
2023/08/17 09:58:22;;;;;;;6.83;6.33;;;18.60;99.90;;;;;;5036608;28;20490;-65
2023/08/17 10:00:50;;;;;;;6.70;6.20;;;18.50;99.90;;;;;;5038168;28;20450;-64
2023/08/17 10:03:18;;;;;;;6.90;4.87;;;18.50;99.90;;;;;;5038631;28;20466;-66
2023/08/17 10:05:47;;;;;;;4.20;3.90;;;18.50;99.90;;;;;;5036762;28;20458;-64
2023/08/17 10:08:20;;;;;;;5.47;5.07;;;18.50;99.90;;;;;;5035650;28;20454;-64
2023/08/17 10:10:48;;;;;;;5.57;5.10;;;18.40;99.90;;;;;;5035686;28;20427;-65
2023/08/17 10:13:24;;;;;;;5.07;4.70;;;18.30;99.90;;;;;;5035367;28;20490;-65
2023/08/17 10:15:58;;;;;;;5.47;5.07;;;18.20;99.90;;;;;;5035378;28;20472;-65
2023/08/17 10:18:34;;;;;;;5.07;4.67;;;18.20;99.90;;;;;;5034791;28;20924;-66
2023/08/17 10:21:04;;;;;;;5.40;5.00;;;18.20;99.90;;;;;;5035037;28;20538;-64
2023/08/17 10:23:32;;;;;;;6.47;5.97;;;18.10;99.90;;;;;;5034812;28;20921;-65
2023/08/17 10:26:02;;;;;;;4.43;4.13;;;18.10;99.90;;;;;;5035453;28;20515;-65
2023/08/17 10:28:31;;;;;;;4.43;4.07;;;18.10;99.90;;;;;;5035233;28;20431;-67
2023/08/17 10:30:59;;;;;;;4.60;4.20;;;18.10;99.90;;;;;;5035060;28;20448;-65
2023/08/17 10:33:26;;;;;;;4.50;4.20;;;18.10;99.90;;;;;;5035284;28;20485;-67
2023/08/17 10:35:53;;;;;;;4.50;4.10;;;18.20;99.90;;;;;;5035061;28;20558;-67
2023/08/17 10:38:20;;;;;;;4.87;3.77;;;18.20;99.90;;;;;;5034763;28;20440;-64
2023/08/17 10:41:12;;;;;;;4.10;3.70;;;18.30;99.90;;;;;;5034504;28;20460;-64
2023/08/17 10:43:59;;;;;;;3.70;3.40;;;18.40;99.90;;;;;;5034386;28;20740;-64
2023/08/17 10:46:36;;;;;;;5.40;5.00;;;18.50;99.90;;;;;;5033781;28;20459;-66
2023/08/17 10:49:05;;;;;;;4.60;4.20;;;18.40;99.90;;;;;;5033966;28;20441;-65
2023/08/17 10:51:32;;;;;;;4.93;4.60;;;18.30;99.90;;;;;;5034368;28;20444;-65
2023/08/17 10:54:02;;;;;;;4.87;4.00;;;18.30;99.90;;;;;;5034145;28;20475;-66
2023/08/17 10:56:31;;;;;;;3.70;3.40;;;18.30;99.90;;;;;;5066558;22;20490;-61
2023/08/17 10:59:01;;;;;;;4.47;3.50;;;18.30;99.90;;;;;;5054422;28;20459;-60
2023/08/17 11:01:35;;;;;;;4.30;3.90;;;18.40;99.90;;;;;;5054256;28;20434;-60
2023/08/17 11:04:21;;;;;;;4.07;3.00;;;18.40;99.90;;;;;;5054993;28;20495;-63
2023/08/17 11:07:03;;;;;;;4.67;4.27;;;18.40;99.90;;;;;;5055397;28;20459;-63
2023/08/17 11:09:30;;;;;;;4.13;3.70;;;18.40;99.90;;;;;;5055418;28;20439;-63
2023/08/17 11:12:01;;;;;;;4.97;4.47;;;18.30;99.90;;;;;;5053738;28;20975;-62
2023/08/17 11:14:34;;;;;;;5.33;4.67;;;18.20;99.90;;;;;;5053880;28;20480;-62
2023/08/17 11:17:00;;;;;;;4.57;4.17;;;18.10;99.90;;;;;;5053999;28;20988;-62
2023/08/17 11:19:27;;;;;;;5.10;4.20;;;18.00;99.90;;;;;;5053916;28;20533;-63
2023/08/17 11:21:54;;;;;;;4.40;4.00;;;17.90;99.90;;;;;;5053720;28;20454;-62
2023/08/17 11:24:22;;;;;;;5.87;5.30;;;17.80;99.90;;;;;;5054201;28;20444;-63
2023/08/17 11:26:49;;;;;;;5.30;4.20;;;17.70;99.90;;;;;;5054015;28;20472;-62
2023/08/17 11:29:17;;;;;;;5.73;4.53;;;17.70;99.90;;;;;;5054508;28;20944;-63
2023/08/17 11:31:44;;;;;;;4.87;4.37;;;17.60;99.90;;;;;;5055292;28;20803;-62
2023/08/17 11:34:15;;;;;;;5.00;4.50;;;17.60;99.90;;;;;;5054687;28;20480;-64
2023/08/17 11:36:42;;;;;;;4.70;4.30;;;17.60;99.90;;;;;;5054053;28;20461;-64
2023/08/17 11:39:09;;;;;;;5.13;4.50;;;17.70;99.90;;;;;;5054652;28;20460;-62
2023/08/17 11:41:35;;;;;;;4.80;4.30;;;17.80;99.90;;;;;;5054257;28;20500;-62
2023/08/17 11:44:03;;;;;;;5.17;4.13;;;17.90;99.90;;;;;;5056586;28;20446;-62
2023/08/17 11:46:32;;;;;;;5.17;4.77;;;17.90;99.90;;;;;;5056148;28;20981;-61
2023/08/17 11:49:00;;;;;;;6.00;4.60;;;17.90;99.90;;;;;;5056222;28;20882;-62
2023/08/17 11:51:30;;;;;;;6.13;4.30;;;18.00;99.90;;;;;;5054195;28;20442;-62
2023/08/17 11:54:00;;;;;;;4.50;4.10;;;18.00;99.90;;;;;;5053824;28;20473;-63
2023/08/17 11:56:27;;;;;;;5.17;4.57;;;18.20;99.90;;;;;;5061688;28;20529;-62
2023/08/17 11:58:54;;;;;;;4.67;4.17;;;18.30;99.90;;;;;;5075079;28;20451;-64
2023/08/17 12:01:20;;;;;;;5.20;4.17;;;18.40;99.90;;;;;;5074262;28;20442;-62
2023/08/17 12:03:49;;;;;;;5.03;3.67;;;18.60;99.90;;;;;;5073780;28;20437;-63
2023/08/17 12:06:17;;;;;;;4.20;3.80;;;18.80;99.90;;;;;;5073093;28;20464;-61
2023/08/17 12:08:45;;;;;;;4.07;3.40;;;18.90;99.90;;;;;;5072894;28;20800;-62
2023/08/17 12:11:12;;;;;;;3.70;3.10;;;18.90;99.90;;;;;;5072798;28;20464;-63
2023/08/17 12:13:39;;;;;;;4.63;3.50;;;19.10;99.90;;;;;;5073471;28;20487;-63
2023/08/17 12:16:06;;;;;;;4.33;3.80;;;19.10;99.90;;;;;;5073406;28;20470;-62
2023/08/17 12:18:33;;;;;;;4.93;4.20;;;19.10;99.90;;;;;;5073676;28;20445;-63
2023/08/17 12:21:02;;;;;;;3.60;3.20;;;19.10;99.90;;;;;;5073765;28;20810;-61
2023/08/17 12:23:29;;;;;;;4.60;3.47;;;19.10;99.90;;;;;;5074084;28;20917;-62
2023/08/17 12:25:56;;;;;;;5.70;4.37;;;19.00;99.90;;;;;;5073707;28;20469;-64
2023/08/17 12:28:24;;;;;;;5.97;3.50;;;18.90;99.90;;;;;;5073117;28;20434;-62
2023/08/17 12:30:59;;;;;;;3.60;3.30;;;18.80;99.90;;;;;;5073999;28;20862;-62
2023/08/17 12:33:25;;;;;;;4.30;3.90;;;18.80;99.90;;;;;;5075645;28;20467;-62
2023/08/17 12:35:52;;;;;;;5.90;3.70;;;18.80;99.90;;;;;;5077108;28;20473;-61
2023/08/17 12:38:21;;;;;;;7.00;4.67;;;18.80;99.90;;;;;;5077713;28;20492;-62
2023/08/17 12:40:48;;;;;;;3.93;3.50;;;18.80;99.90;;;;;;5076984;28;20966;-62
2023/08/17 12:43:14;;;;;;;4.10;3.67;;;18.90;99.90;;;;;;5078019;28;20442;-62
2023/08/17 12:45:41;;;;;;;4.40;4.07;;;18.90;99.90;;;;;;5076732;28;20924;-62
2023/08/17 12:48:08;;;;;;;5.20;4.70;;;18.80;99.90;;;;;;5077550;28;20442;-63
2023/08/17 12:50:34;;;;;;;4.47;3.90;;;18.80;99.90;;;;;;5077450;28;20815;-62